createdAt,value
2018-03-20T00:02:17.060Z,76.20
2018-03-20T00:04:44.456Z,63.83
2018-03-20T00:07:11.845Z,75.83
2018-03-20T00:09:39.216Z,81.93
2018-03-20T00:12:06.617Z,60.40
2018-03-20T00:14:33.979Z,64.03
2018-03-20T00:17:01.338Z,83.10
2018-03-20T00:19:28.770Z,76.30
2018-03-20T00:21:56.157Z,63.83
2018-03-20T00:24:23.526Z,83.17
2018-03-20T00:26:50.946Z,68.63
2018-03-20T00:29:18.312Z,58.77
2018-03-20T00:31:45.685Z,55.47
2018-03-20T00:34:13.105Z,70.00
2018-03-20T00:36:40.455Z,68.80
2018-03-20T00:39:07.826Z,76.63
2018-03-20T00:41:35.208Z,71.60
2018-03-20T00:44:02.635Z,78.17
2018-03-20T00:46:30.022Z,72.53
2018-03-20T00:48:57.418Z,70.07
2018-03-20T00:51:24.977Z,63.93
2018-03-20T00:53:52.354Z,55.20
2018-03-20T00:56:19.769Z,70.50
2018-03-20T00:58:47.143Z,58.33
2018-03-20T01:01:14.510Z,52.73
2018-03-20T01:03:41.905Z,56.23
2018-03-20T01:06:09.265Z,55.13
2018-03-20T01:08:36.768Z,48.63
2018-03-20T01:11:04.161Z,53.13
2018-03-20T01:13:31.606Z,55.63
2018-03-20T01:15:58.978Z,58.00
2018-03-20T01:18:26.360Z,47.73
2018-03-20T01:20:53.745Z,58.07
2018-03-20T01:23:21.137Z,49.20
2018-03-20T01:25:48.498Z,51.83
2018-03-20T01:28:15.885Z,46.27
2018-03-20T01:30:43.238Z,57.53
2018-03-20T01:33:10.645Z,58.97
2018-03-20T01:35:38.079Z,49.60
2018-03-20T01:38:05.454Z,39.93
2018-03-20T01:40:32.854Z,51.33
2018-03-20T01:43:00.222Z,60.70
2018-03-20T01:45:27.582Z,46.20
2018-03-20T01:47:54.973Z,48.13
2018-03-20T01:50:22.392Z,53.90
2018-03-20T01:52:55.538Z,54.50
2018-03-20T01:55:22.921Z,49.87
2018-03-20T01:57:50.326Z,48.67
2018-03-20T02:00:17.686Z,60.87
2018-03-20T02:02:45.058Z,50.60
2018-03-20T02:05:12.472Z,55.90
2018-03-20T02:07:39.872Z,47.43
2018-03-20T02:10:07.228Z,49.87
2018-03-20T02:12:34.628Z,62.50
2018-03-20T02:15:02.032Z,56.87
2018-03-20T02:17:29.388Z,78.30
2018-03-20T02:19:56.817Z,91.20
2018-03-20T02:22:24.177Z,50.60
2018-03-20T02:24:52.061Z,45.57
2018-03-20T02:27:19.442Z,43.40
2018-03-20T02:29:46.818Z,56.37
2018-03-20T02:32:14.209Z,47.30
2018-03-20T02:34:41.573Z,43.27
2018-03-20T02:37:08.953Z,44.13
2018-03-20T02:39:36.317Z,41.33
2018-03-20T02:42:03.718Z,46.40
2018-03-20T02:44:31.085Z,46.83
2018-03-20T02:46:58.481Z,44.57
2018-03-20T02:49:25.887Z,55.87
2018-03-20T02:51:53.374Z,45.20
2018-03-20T02:54:20.770Z,52.17
2018-03-20T02:56:48.152Z,46.57
2018-03-20T02:59:15.523Z,47.27
2018-03-20T03:01:42.938Z,44.33
2018-03-20T03:04:10.319Z,35.20
2018-03-20T03:06:37.688Z,36.13
2018-03-20T03:09:05.103Z,36.10
2018-03-20T03:11:32.505Z,33.80
2018-03-20T03:13:59.876Z,28.30
2018-03-20T03:16:27.265Z,33.33
2018-03-20T03:18:54.660Z,31.20
2018-03-20T03:21:22.042Z,32.30
2018-03-20T03:23:49.484Z,32.30
2018-03-20T03:26:17.017Z,36.30
2018-03-20T03:28:44.395Z,31.20
2018-03-20T03:31:11.844Z,32.30
2018-03-20T03:33:39.388Z,28.60
2018-03-20T03:36:06.768Z,28.30
2018-03-20T03:38:34.303Z,28.20
2018-03-20T03:41:01.701Z,28.83
2018-03-20T03:43:29.057Z,29.47
2018-03-20T03:45:56.480Z,27.10
2018-03-20T03:48:23.872Z,26.57
2018-03-20T03:50:51.275Z,26.40
2018-03-20T03:53:18.717Z,21.93
2018-03-20T03:55:46.871Z,31.17
2018-03-20T03:58:14.229Z,28.63
2018-03-20T04:00:41.596Z,30.20
2018-03-20T04:03:08.988Z,31.60
2018-03-20T04:05:36.467Z,27.23
2018-03-20T04:08:03.854Z,27.00
2018-03-20T04:10:31.212Z,27.47
2018-03-20T04:12:58.608Z,29.07
2018-03-20T04:15:26.021Z,28.60
2018-03-20T04:17:53.376Z,28.70
2018-03-20T04:20:20.734Z,30.37
2018-03-20T04:22:48.126Z,29.80
2018-03-20T04:25:15.532Z,28.77
2018-03-20T04:27:42.899Z,31.57
2018-03-20T04:30:10.293Z,27.93
2018-03-20T04:32:37.699Z,27.83
2018-03-20T04:35:05.114Z,29.07
2018-03-20T04:37:32.478Z,27.37
2018-03-20T04:39:59.886Z,30.77
2018-03-20T04:42:27.240Z,28.50
2018-03-20T04:44:54.593Z,28.93
2018-03-20T04:47:22.010Z,28.90
2018-03-20T04:49:49.370Z,21.30
2018-03-20T04:52:16.738Z,23.70
2018-03-20T04:54:44.143Z,25.23
2018-03-20T04:57:11.550Z,27.93
2018-03-20T04:59:38.908Z,28.30
2018-03-20T05:02:06.321Z,26.33
2018-03-20T05:04:33.709Z,28.33
2018-03-20T05:07:01.060Z,26.87
2018-03-20T05:09:28.473Z,28.10
2018-03-20T05:11:55.954Z,27.53
2018-03-20T05:14:23.405Z,25.03
2018-03-20T05:16:50.800Z,22.67
2018-03-20T05:19:33.046Z,43.30
2018-03-20T05:22:20.766Z,30.50
2018-03-20T05:24:48.120Z,29.33
2018-03-20T05:27:15.533Z,24.73
2018-03-20T05:29:42.906Z,25.73
2018-03-20T05:32:10.262Z,27.87
2018-03-20T05:34:37.658Z,20.80
2018-03-20T05:37:05.038Z,23.63
2018-03-20T05:39:32.406Z,31.73
2018-03-20T05:41:59.794Z,26.60
2018-03-20T05:44:27.149Z,25.70
2018-03-20T05:47:09.442Z,27.23
2018-03-20T05:49:46.629Z,23.23
2018-03-20T05:52:14.042Z,28.80
2018-03-20T05:54:41.449Z,21.50
2018-03-20T05:57:08.806Z,24.53
2018-03-20T05:59:36.221Z,23.80
2018-03-20T06:02:03.590Z,23.70
2018-03-20T06:04:30.943Z,23.43
2018-03-20T06:06:58.325Z,26.57
2018-03-20T06:09:25.734Z,23.07
2018-03-20T06:11:53.108Z,26.17
2018-03-20T06:14:20.482Z,24.33
2018-03-20T06:16:47.877Z,22.17
2018-03-20T06:19:15.234Z,23.87
2018-03-20T06:21:42.619Z,23.33
2018-03-20T06:24:10.005Z,21.80
2018-03-20T06:26:37.444Z,23.33
2018-03-20T06:29:04.838Z,21.80
2018-03-20T06:31:32.207Z,23.67
2018-03-20T06:33:59.565Z,22.40
2018-03-20T06:36:26.973Z,24.00
2018-03-20T06:38:54.605Z,20.07
2018-03-20T06:41:21.966Z,19.23
2018-03-20T06:43:49.345Z,22.43
2018-03-20T06:46:16.743Z,22.00
2018-03-20T06:48:44.124Z,19.97
2018-03-20T06:51:11.541Z,16.73
2018-03-20T06:53:38.938Z,23.10
2018-03-20T06:56:06.310Z,22.00
2018-03-20T06:58:33.697Z,20.60
2018-03-20T07:01:01.061Z,21.30
2018-03-20T07:03:28.450Z,22.50
2018-03-20T07:05:55.829Z,22.83
2018-03-20T07:08:23.196Z,24.63
2018-03-20T07:10:50.598Z,18.80
2018-03-20T07:13:17.987Z,19.10
2018-03-20T07:15:45.378Z,21.13
2018-03-20T07:18:12.866Z,18.70
2018-03-20T07:20:40.229Z,19.67
2018-03-20T07:23:07.582Z,20.20
2018-03-20T07:25:34.978Z,21.27
2018-03-20T07:28:02.348Z,21.53
2018-03-20T07:30:29.743Z,20.30
2018-03-20T07:32:57.097Z,19.30
2018-03-20T07:35:24.460Z,21.57
2018-03-20T07:37:51.841Z,21.20
2018-03-20T07:40:19.220Z,21.63
2018-03-20T07:42:46.622Z,21.77
2018-03-20T07:45:14.033Z,24.83
2018-03-20T07:47:41.392Z,20.97
2018-03-20T07:50:08.745Z,22.70
2018-03-20T07:52:36.141Z,21.27
2018-03-20T07:55:03.613Z,21.57
2018-03-20T07:57:31.011Z,21.23
2018-03-20T07:59:58.407Z,23.63
2018-03-20T08:02:25.768Z,23.77
2018-03-20T08:04:53.162Z,23.00
2018-03-20T08:07:20.569Z,25.80
2018-03-20T08:09:47.954Z,25.03
2018-03-20T08:12:15.347Z,30.27
2018-03-20T08:14:42.713Z,27.50
2018-03-20T08:17:10.138Z,22.50
2018-03-20T08:19:37.516Z,26.63
2018-03-20T08:22:04.885Z,23.13
2018-03-20T08:24:32.298Z,25.30
2018-03-20T08:26:59.666Z,24.47
2018-03-20T08:29:27.053Z,25.97
2018-03-20T08:31:54.457Z,21.67
2018-03-20T08:34:21.901Z,24.00
2018-03-20T08:36:49.315Z,24.00
2018-03-20T08:39:16.681Z,22.73
2018-03-20T08:41:44.057Z,23.50
2018-03-20T08:44:11.449Z,23.50
2018-03-20T08:46:38.862Z,25.10
2018-03-20T08:49:06.226Z,28.20
2018-03-20T08:51:33.641Z,29.90
2018-03-20T08:54:01.006Z,29.00
2018-03-20T08:56:28.533Z,30.73
2018-03-20T08:58:55.935Z,24.73
2018-03-20T09:01:23.326Z,26.60
2018-03-20T09:03:50.727Z,26.13
2018-03-20T09:06:18.157Z,32.57
2018-03-20T09:08:45.525Z,27.10
2018-03-20T09:11:12.938Z,26.83
2018-03-20T09:13:40.339Z,32.10
2018-03-20T09:16:07.988Z,25.37
2018-03-20T09:18:35.393Z,29.20
2018-03-20T09:21:02.769Z,31.33
2018-03-20T09:23:30.153Z,28.67
2018-03-20T09:25:57.512Z,29.60
2018-03-20T09:28:24.902Z,27.83
2018-03-20T09:30:52.402Z,31.37
2018-03-20T09:33:19.767Z,30.07
2018-03-20T09:35:47.152Z,25.90
2018-03-20T09:38:14.561Z,31.67
2018-03-20T09:40:41.916Z,31.97
2018-03-20T09:43:09.278Z,30.57
2018-03-20T09:45:36.708Z,33.87
2018-03-20T09:48:04.083Z,32.63
2018-03-20T09:50:31.516Z,37.70
2018-03-20T09:52:58.929Z,37.23
2018-03-20T09:55:26.320Z,33.47
2018-03-20T09:57:53.725Z,40.50
2018-03-20T10:00:21.085Z,40.13
2018-03-20T10:02:48.484Z,39.63
2018-03-20T10:05:15.896Z,42.07
2018-03-20T10:07:43.269Z,39.20
2018-03-20T10:10:10.712Z,47.30
2018-03-20T10:12:38.251Z,42.63
2018-03-20T10:15:05.613Z,45.87
2018-03-20T10:17:33.032Z,40.20
2018-03-20T10:20:00.460Z,44.03
2018-03-20T10:22:27.827Z,40.87
2018-03-20T10:24:55.179Z,42.33
2018-03-20T10:27:22.586Z,44.37
2018-03-20T10:29:50.013Z,41.70
2018-03-20T10:32:17.413Z,46.67
2018-03-20T10:34:44.827Z,41.20
2018-03-20T10:37:12.263Z,41.70
2018-03-20T10:39:39.621Z,49.00
2018-03-20T10:42:07.021Z,42.40
2018-03-20T10:44:34.374Z,43.93
2018-03-20T10:47:01.841Z,46.27
2018-03-20T10:49:29.282Z,42.43
2018-03-20T10:51:56.847Z,37.87
2018-03-20T10:54:24.222Z,35.83
2018-03-20T10:56:51.634Z,37.40
2018-03-20T10:59:19.088Z,31.53
2018-03-20T11:01:46.510Z,42.07
2018-03-20T11:04:13.873Z,33.70
2018-03-20T11:06:41.249Z,33.43
2018-03-20T11:09:08.957Z,35.10
2018-03-20T11:11:36.350Z,33.03
2018-03-20T11:14:03.742Z,34.40
2018-03-20T11:16:31.113Z,34.37
2018-03-20T11:18:58.501Z,35.60
2018-03-20T11:21:25.880Z,32.60
2018-03-20T11:23:53.270Z,35.40
2018-03-20T11:26:20.709Z,36.53
2018-03-20T11:28:48.065Z,36.43
2018-03-20T11:31:15.472Z,34.63
2018-03-20T11:33:42.914Z,34.20
2018-03-20T11:36:10.318Z,35.40
2018-03-20T11:38:37.721Z,33.20
2018-03-20T11:41:05.076Z,31.30
2018-03-20T11:43:32.433Z,35.93
2018-03-20T11:45:59.823Z,39.67
2018-03-20T11:48:27.201Z,35.33
2018-03-20T11:50:54.601Z,35.90
2018-03-20T11:53:21.974Z,33.87
2018-03-20T11:55:49.346Z,34.53
2018-03-20T11:58:16.806Z,35.53
2018-03-20T12:00:44.187Z,34.90
2018-03-20T12:03:11.623Z,34.50
2018-03-20T12:05:39.026Z,34.13
2018-03-20T12:08:12.305Z,30.37
2018-03-20T12:10:39.691Z,33.57
2018-03-20T12:13:07.055Z,34.23
2018-03-20T12:15:34.455Z,33.93
2018-03-20T12:18:01.943Z,33.33
2018-03-20T12:20:29.309Z,30.53
2018-03-20T12:22:56.910Z,29.60
2018-03-20T12:25:24.299Z,32.37
2018-03-20T12:27:51.669Z,31.97
2018-03-20T12:30:19.048Z,30.00
2018-03-20T12:32:46.422Z,29.77
2018-03-20T12:35:13.830Z,34.03
2018-03-20T12:37:41.313Z,27.27
2018-03-20T12:40:08.703Z,33.80
2018-03-20T12:42:36.117Z,28.73
2018-03-20T12:45:03.563Z,35.90
2018-03-20T12:47:30.998Z,26.40
2018-03-20T12:49:58.385Z,22.80
2018-03-20T12:52:25.737Z,27.30
2018-03-20T12:54:53.113Z,28.87
2018-03-20T12:57:20.501Z,21.30
2018-03-20T12:59:47.978Z,23.50
2018-03-20T13:02:15.401Z,25.13
2018-03-20T13:04:42.806Z,26.33
2018-03-20T13:07:10.263Z,23.60
2018-03-20T13:09:37.720Z,22.20
2018-03-20T13:12:05.089Z,22.20
2018-03-20T13:14:32.569Z,26.00
2018-03-20T13:16:59.981Z,24.93
2018-03-20T13:19:27.381Z,22.17
2018-03-20T13:21:54.758Z,22.10
2018-03-20T13:24:22.139Z,27.80
2018-03-20T13:26:49.534Z,22.53
2018-03-20T13:29:16.963Z,28.43
2018-03-20T13:31:44.367Z,25.50
2018-03-20T13:34:11.729Z,28.57
2018-03-20T13:36:39.153Z,24.10
2018-03-20T13:39:06.606Z,23.67
2018-03-20T13:41:33.973Z,26.70
2018-03-20T13:44:01.379Z,23.20
2018-03-20T13:46:28.763Z,25.67
2018-03-20T13:48:56.165Z,28.00
2018-03-20T13:51:23.573Z,28.07
2018-03-20T13:53:50.940Z,27.60
2018-03-20T13:56:18.386Z,22.30
2018-03-20T13:58:45.831Z,25.30
2018-03-20T14:01:13.290Z,22.57
2018-03-20T14:03:40.709Z,26.90
2018-03-20T14:06:08.085Z,25.17
2018-03-20T14:08:35.446Z,23.50
2018-03-20T14:11:02.854Z,23.67
2018-03-20T14:13:30.230Z,23.43
2018-03-20T14:15:57.583Z,23.23
2018-03-20T14:18:24.981Z,23.93
2018-03-20T14:20:52.346Z,23.43
2018-03-20T14:23:19.744Z,21.93
2018-03-20T14:25:47.182Z,23.00
2018-03-20T14:28:14.546Z,26.23
2018-03-20T14:30:41.918Z,22.83
2018-03-20T14:33:09.418Z,21.23
2018-03-20T14:35:36.799Z,24.60
2018-03-20T14:38:04.966Z,19.47
2018-03-20T14:40:32.330Z,22.03
2018-03-20T14:42:59.949Z,20.00
2018-03-20T14:45:27.302Z,21.50
2018-03-20T14:47:54.665Z,16.67
2018-03-20T14:50:22.070Z,18.00
2018-03-20T14:52:49.448Z,16.60
2018-03-20T14:55:16.827Z,14.97
2018-03-20T14:57:44.201Z,16.70
2018-03-20T15:00:11.573Z,13.57
2018-03-20T15:02:38.998Z,19.33
2018-03-20T15:05:06.438Z,17.23
2018-03-20T15:07:33.812Z,13.53
2018-03-20T15:10:01.242Z,13.00
2018-03-20T15:12:28.595Z,14.83
2018-03-20T15:14:55.950Z,16.83
2018-03-20T15:17:23.343Z,13.50
2018-03-20T15:19:50.783Z,14.00
2018-03-20T15:22:18.158Z,16.60
2018-03-20T15:24:45.529Z,15.77
2018-03-20T15:27:12.882Z,16.73
2018-03-20T15:29:40.286Z,13.77
2018-03-20T15:32:07.745Z,13.80
2018-03-20T15:34:35.122Z,17.07
2018-03-20T15:37:02.655Z,15.13
2018-03-20T15:39:30.144Z,18.53
2018-03-20T15:41:59.377Z,17.07
2018-03-20T15:44:26.725Z,19.63
2018-03-20T15:46:54.081Z,13.10
2018-03-20T15:49:21.635Z,7.53
2018-03-20T15:51:48.989Z,9.40
2018-03-20T15:54:16.332Z,7.27
2018-03-20T15:56:43.724Z,7.17
2018-03-20T15:59:11.117Z,8.80
2018-03-20T16:01:38.587Z,7.33
2018-03-20T16:04:06.090Z,10.30
2018-03-20T16:06:33.450Z,5.10
2018-03-20T16:09:00.815Z,3.50
2018-03-20T16:11:28.198Z,2.83
2018-03-20T16:13:55.619Z,3.77
2018-03-20T16:16:22.969Z,4.20
2018-03-20T16:18:50.326Z,4.90
2018-03-20T16:21:17.711Z,3.80
2018-03-20T16:23:45.092Z,7.73
2018-03-20T16:26:12.477Z,5.60
2018-03-20T16:28:39.838Z,2.50
2018-03-20T16:31:07.197Z,4.37
2018-03-20T16:33:34.585Z,9.57
2018-03-20T16:36:01.977Z,6.90
2018-03-20T16:38:29.322Z,5.50
2018-03-20T16:40:56.673Z,4.23
2018-03-20T16:43:24.053Z,3.90
2018-03-20T16:45:51.435Z,4.47
2018-03-20T16:48:18.836Z,3.93
2018-03-20T16:50:46.277Z,2.60
2018-03-20T16:53:13.738Z,4.37
2018-03-20T16:55:41.146Z,3.30
2018-03-20T16:58:08.541Z,5.13
2018-03-20T17:00:35.905Z,3.20
2018-03-20T17:03:03.253Z,6.07
2018-03-20T17:05:30.638Z,3.10
2018-03-20T17:07:58.070Z,4.50
2018-03-20T17:10:25.471Z,3.10
2018-03-20T17:12:52.905Z,2.43
2018-03-20T17:15:20.258Z,2.70
2018-03-20T17:17:47.821Z,3.93
2018-03-20T17:20:15.249Z,5.43
2018-03-20T17:22:42.615Z,3.90
2018-03-20T17:25:09.984Z,4.80
2018-03-20T17:27:37.377Z,3.90
2018-03-20T17:30:04.734Z,2.60
2018-03-20T17:32:32.080Z,7.10
2018-03-20T17:34:59.509Z,5.17
2018-03-20T17:37:26.865Z,7.47
2018-03-20T17:39:54.315Z,3.40
2018-03-20T17:42:21.751Z,6.20
2018-03-20T17:44:49.235Z,7.73
2018-03-20T17:47:16.617Z,7.33
2018-03-20T17:49:43.970Z,4.57
2018-03-20T17:52:11.327Z,9.00
2018-03-20T17:54:38.721Z,5.70
2018-03-20T17:57:06.204Z,6.80
2018-03-20T17:59:33.575Z,9.53
2018-03-20T18:02:00.945Z,6.73
2018-03-20T18:04:28.294Z,7.60
2018-03-20T18:06:55.682Z,7.53
2018-03-20T18:09:23.099Z,11.00
2018-03-20T18:11:50.487Z,4.57
2018-03-20T18:14:17.831Z,4.83
2018-03-20T18:16:45.223Z,7.30
2018-03-20T18:19:12.567Z,4.83
2018-03-20T18:21:39.980Z,5.70
2018-03-20T18:24:07.362Z,2.77
2018-03-20T18:26:34.726Z,7.53
2018-03-20T18:29:02.194Z,4.47
2018-03-20T18:31:29.593Z,9.70
2018-03-20T18:33:56.948Z,4.93
2018-03-20T18:36:24.329Z,4.20
2018-03-20T18:38:51.738Z,7.50
2018-03-20T18:41:19.108Z,7.07
2018-03-20T18:43:46.494Z,6.53
2018-03-20T18:46:13.849Z,5.57
2018-03-20T18:48:41.193Z,6.63
2018-03-20T18:51:08.613Z,6.03
2018-03-20T18:53:35.993Z,6.80
2018-03-20T18:56:03.452Z,8.77
2018-03-20T18:58:30.855Z,9.13
2018-03-20T19:00:58.199Z,7.93
2018-03-20T19:03:25.572Z,5.80
2018-03-20T19:05:52.950Z,7.40
2018-03-20T19:08:20.418Z,4.83
2018-03-20T19:10:47.774Z,5.97
2018-03-20T19:13:15.170Z,4.73
2018-03-20T19:15:42.530Z,5.73
2018-03-20T19:18:09.895Z,5.30
2018-03-20T19:20:37.296Z,4.87
2018-03-20T19:23:04.644Z,4.23
2018-03-20T19:25:32.971Z,3.93
2018-03-20T19:28:00.329Z,3.67
2018-03-20T19:30:27.759Z,5.07
2018-03-20T19:32:55.111Z,3.13
2018-03-20T19:35:22.464Z,4.50
2018-03-20T19:37:49.862Z,6.17
2018-03-20T19:40:17.218Z,3.50
2018-03-20T19:42:45.467Z,5.17
2018-03-20T19:45:12.827Z,3.73
2018-03-20T19:47:40.189Z,5.67
2018-03-20T19:50:07.615Z,9.47
2018-03-20T19:52:34.971Z,4.03
2018-03-20T19:55:02.340Z,3.67
2018-03-20T19:57:29.744Z,5.33
2018-03-20T19:59:57.921Z,9.60
2018-03-20T20:02:25.279Z,3.10
2018-03-20T20:04:52.832Z,3.70
2018-03-20T20:07:20.224Z,4.73
2018-03-20T20:09:47.582Z,6.90
2018-03-20T20:12:14.998Z,10.77
2018-03-20T20:14:42.407Z,4.33
2018-03-20T20:17:09.789Z,3.77
2018-03-20T20:19:37.183Z,5.10
2018-03-20T20:22:04.579Z,4.37
2018-03-20T20:24:32.017Z,7.07
2018-03-20T20:26:59.433Z,4.90
2018-03-20T20:29:26.922Z,10.10
2018-03-20T20:31:54.308Z,7.63
2018-03-20T20:34:21.827Z,4.20
2018-03-20T20:36:49.203Z,6.30
2018-03-20T20:39:16.570Z,5.73
2018-03-20T20:41:43.970Z,5.93
2018-03-20T20:44:11.328Z,4.97
2018-03-20T20:46:38.689Z,4.37
2018-03-20T20:49:06.096Z,5.77
2018-03-20T20:51:33.454Z,5.30
2018-03-20T20:54:00.825Z,6.00
2018-03-20T20:56:28.232Z,5.93
2018-03-20T20:58:55.588Z,5.23
2018-03-20T21:01:23.007Z,5.27
2018-03-20T21:03:50.422Z,6.70
2018-03-20T21:06:17.790Z,6.17
2018-03-20T21:08:45.155Z,8.00
2018-03-20T21:11:12.535Z,4.33
2018-03-20T21:13:39.937Z,7.33
2018-03-20T21:16:07.378Z,6.27
2018-03-20T21:18:34.768Z,4.70
2018-03-20T21:21:02.131Z,5.20
2018-03-20T21:23:29.490Z,5.70
2018-03-20T21:25:57.003Z,5.83
2018-03-20T21:28:24.358Z,11.27
2018-03-20T21:30:51.712Z,5.90
2018-03-20T21:33:19.102Z,6.50
2018-03-20T21:35:46.523Z,6.80
2018-03-20T21:38:13.891Z,6.03
2018-03-20T21:40:41.294Z,4.07
2018-03-20T21:43:08.658Z,7.53
2018-03-20T21:45:36.009Z,6.20
2018-03-20T21:48:03.394Z,7.40
2018-03-20T21:50:30.799Z,6.27
2018-03-20T21:52:58.153Z,8.57
2018-03-20T21:55:25.544Z,9.13
2018-03-20T21:57:52.962Z,7.83
2018-03-20T22:00:20.309Z,5.77
2018-03-20T22:02:47.690Z,6.93
2018-03-20T22:05:15.045Z,7.23
2018-03-20T22:07:42.502Z,8.83
2018-03-20T22:10:09.861Z,7.40
2018-03-20T22:12:37.245Z,3.77
2018-03-20T22:15:04.653Z,10.07
2018-03-20T22:17:32.046Z,5.97
2018-03-20T22:19:59.401Z,7.70
2018-03-20T22:22:26.798Z,7.23
2018-03-20T22:24:54.194Z,6.07
2018-03-20T22:27:21.556Z,9.03
2018-03-20T22:29:48.926Z,8.30
2018-03-20T22:32:16.309Z,5.53
2018-03-20T22:34:43.675Z,8.73
2018-03-20T22:37:11.046Z,10.37
2018-03-20T22:39:38.438Z,7.70
2018-03-20T22:42:05.858Z,7.07
2018-03-20T22:44:33.201Z,7.97
2018-03-20T22:47:00.571Z,8.57
2018-03-20T22:49:27.912Z,5.93
2018-03-20T22:51:55.299Z,4.40
2018-03-20T22:54:22.645Z,6.97
2018-03-20T22:56:53.514Z,5.97
2018-03-20T22:59:20.900Z,9.63
2018-03-20T23:01:48.262Z,4.83
2018-03-20T23:04:15.610Z,7.27
2018-03-20T23:06:43.008Z,7.60
2018-03-20T23:09:10.362Z,10.30
2018-03-20T23:11:37.717Z,10.27
2018-03-20T23:14:05.097Z,5.40
2018-03-20T23:16:32.459Z,8.60
2018-03-20T23:18:59.825Z,9.23
2018-03-20T23:21:27.199Z,8.63
2018-03-20T23:23:54.641Z,6.43
2018-03-20T23:26:21.994Z,9.67
2018-03-20T23:28:49.392Z,6.27
2018-03-20T23:31:16.756Z,5.70
2018-03-20T23:33:44.105Z,6.87
2018-03-20T23:36:11.491Z,5.83
2018-03-20T23:38:38.907Z,8.93
2018-03-20T23:41:06.314Z,6.50
2018-03-20T23:43:33.734Z,12.67
2018-03-20T23:46:01.093Z,9.37
2018-03-20T23:48:28.509Z,6.60
2018-03-20T23:50:55.886Z,9.07
2018-03-20T23:53:23.272Z,7.67
2018-03-20T23:55:50.675Z,8.77
2018-03-20T23:58:18.038Z,8.43
